Time;durP1;ratioP1;P1;durP2;ratioP2;P2;SDS_P1;SDS_P2;PMS_P1;PMS_P2;Temp;Humidity;BMP_temperature;BMP_pressure;BME280_temperature;BME280_humidity;BME280_pressure;Samples;Min_cycle;Max_cycle;Signal;HPM_P1;HPM_P2
2022/02/22 00:01:54;;;;;;;13.73;9.77;;;;;;;;;;5010132;28;20475;-79
2022/02/22 00:04:45;;;;;;;12.23;8.63;;;;;;;;;;4936229;28;20051;-79
2022/02/22 00:07:13;;;;;;;12.65;8.00;;;;;;;;;;4957208;28;20043;-78
2022/02/22 00:10:03;;;;;;;14.38;9.73;;;;;;;;;;4938173;28;20048;-78
2022/02/22 00:12:30;;;;;;;17.98;10.57;;;;;;;;;;4936124;28;20086;-79
2022/02/22 00:14:59;;;;;;;16.00;10.75;;;;;;;;;;4934002;28;20043;-78
2022/02/22 00:17:38;;;;;;;17.55;10.75;;;;;;;;;;4916181;29;20044;-79
2022/02/22 00:20:05;;;;;;;17.45;10.80;;;;;;;;;;4926679;29;20033;-79
2022/02/22 00:22:34;;;;;;;15.30;10.05;;;;;;;;;;4918598;29;20108;-79
2022/02/22 00:25:13;;;;;;;16.15;10.60;;;;;;;;;;4917914;29;20035;-79
2022/02/22 00:28:00;;;;;;;16.27;10.68;;;;;;;;;;4916891;28;20076;-79
2022/02/22 00:30:36;;;;;;;19.27;12.65;;;;;;;;;;4932814;28;20064;-79
2022/02/22 00:33:35;;;;;;;22.70;14.07;;;;;;;;;;4916040;29;20104;-79
2022/02/22 00:36:02;;;;;;;17.90;10.88;;;;;;;;;;4923355;29;20036;-79
2022/02/22 00:38:28;;;;;;;13.82;8.68;;;;;;;;;;4909691;29;20044;-79
2022/02/22 00:41:11;;;;;;;11.70;7.35;;;;;;;;;;4923753;28;20020;-80
2022/02/22 00:43:46;;;;;;;10.20;6.70;;;;;;;;;;4936053;28;20027;-79
2022/02/22 00:46:39;;;;;;;9.68;6.90;;;;;;;;;;4935840;29;20022;-78
2022/02/22 00:49:19;;;;;;;9.97;6.80;;;;;;;;;;4928225;29;20055;-79
2022/02/22 00:51:59;;;;;;;9.70;6.93;;;;;;;;;;4904894;29;20354;-78
2022/02/22 00:54:48;;;;;;;10.90;7.32;;;;;;;;;;4943500;29;20015;-78
2022/02/22 00:57:17;;;;;;;10.30;7.07;;;;;;;;;;4933129;29;20052;-78
2022/02/22 00:59:51;;;;;;;14.02;7.47;;;;;;;;;;4939823;29;20502;-78
2022/02/22 01:02:20;;;;;;;15.60;9.65;;;;;;;;;;4938540;29;20052;-78
2022/02/22 01:05:32;;;;;;;18.85;11.60;;;;;;;;;;4939006;29;20054;-78
2022/02/22 01:07:59;;;;;;;17.58;9.52;;;;;;;;;;4948436;29;20044;-79
2022/02/22 01:10:25;;;;;;;16.45;8.15;;;;;;;;;;4942765;29;20051;-78
2022/02/22 01:12:53;;;;;;;8.68;5.40;;;;;;;;;;4937218;29;20107;-79
2022/02/22 01:15:25;;;;;;;8.65;5.47;;;;;;;;;;4929700;29;20064;-80
2022/02/22 01:17:57;;;;;;;6.93;4.75;;;;;;;;;;4944247;29;20092;-78
2022/02/22 01:20:30;;;;;;;8.07;5.07;;;;;;;;;;4938979;29;20036;-78
2022/02/22 01:22:57;;;;;;;8.82;4.25;;;;;;;;;;4935540;29;20032;-78
2022/02/22 01:25:37;;;;;;;9.30;6.05;;;;;;;;;;4948307;29;20043;-78
2022/02/22 01:28:07;;;;;;;12.50;8.40;;;;;;;;;;4938157;29;20066;-79
2022/02/22 01:30:53;;;;;;;12.57;7.82;;;;;;;;;;4955508;29;20039;-78
2022/02/22 01:33:22;;;;;;;11.88;7.90;;;;;;;;;;4943836;29;20040;-78
2022/02/22 01:36:00;;;;;;;12.18;7.30;;;;;;;;;;4937453;29;20083;-79
2022/02/22 01:38:38;;;;;;;11.55;6.03;;;;;;;;;;4955539;28;20114;-78
2022/02/22 01:41:04;;;;;;;11.88;6.72;;;;;;;;;;4983114;28;20059;-78
2022/02/22 01:43:30;;;;;;;11.77;6.95;;;;;;;;;;4957556;28;20074;-78
2022/02/22 01:46:27;;;;;;;10.20;6.55;;;;;;;;;;4965018;28;20025;-80
2022/02/22 01:48:56;;;;;;;9.98;6.05;;;;;;;;;;4993580;28;20010;-79
2022/02/22 01:51:33;;;;;;;15.85;9.48;;;;;;;;;;4999354;28;20057;-79
2022/02/22 01:54:05;;;;;;;19.65;11.23;;;;;;;;;;5013760;28;20034;-79
2022/02/22 01:56:39;;;;;;;20.38;12.50;;;;;;;;;;5015408;28;20061;-79
2022/02/22 01:59:10;;;;;;;17.58;10.52;;;;;;;;;;5014028;28;20034;-79
2022/02/22 02:01:36;;;;;;;19.88;10.98;;;;;;;;;;5009637;28;20046;-78
2022/02/22 02:04:28;;;;;;;19.15;10.77;;;;;;;;;;5011938;28;20048;-79
2022/02/22 02:06:55;;;;;;;17.73;9.80;;;;;;;;;;4999308;28;20026;-78
2022/02/22 02:09:21;;;;;;;13.70;7.75;;;;;;;;;;5006618;28;20057;-78
2022/02/22 02:11:51;;;;;;;10.27;5.38;;;;;;;;;;5009437;28;20146;-78
2022/02/22 02:14:20;;;;;;;6.63;4.15;;;;;;;;;;5011326;28;20114;-78
2022/02/22 02:17:13;;;;;;;6.75;4.25;;;;;;;;;;4997947;28;20030;-80
2022/02/22 02:19:45;;;;;;;14.57;9.25;;;;;;;;;;5012857;28;20030;-78
2022/02/22 02:22:13;;;;;;;11.52;7.32;;;;;;;;;;4997623;28;20046;-78
2022/02/22 02:24:45;;;;;;;10.32;6.30;;;;;;;;;;5012587;28;20566;-79
2022/02/22 02:27:33;;;;;;;;;;;;;;;;;;5015207;28;20033;-79
2022/02/22 02:30:03;;;;;;;11.73;6.63;;;;;;;;;;5008297;28;19920;-79
2022/02/22 02:35:24;;;;;;;10.85;7.10;;;;;;;;;;4988554;28;20037;-79
2022/02/22 02:38:10;;;;;;;9.93;6.60;;;;;;;;;;4940294;28;20038;-79
2022/02/22 02:40:39;;;;;;;11.43;7.68;;;;;;;;;;4980450;28;20034;-80
2022/02/22 02:43:26;;;;;;;12.52;8.02;;;;;;;;;;5006964;28;20022;-79
2022/02/22 02:46:31;;;;;;;13.93;9.00;;;;;;;;;;5010243;28;20030;-79
2022/02/22 02:49:08;;;;;;;18.23;8.73;;;;;;;;;;4980185;28;20052;-78
2022/02/22 02:51:46;;;;;;;11.90;7.88;;;;;;;;;;5010821;28;20447;-79
2022/02/22 02:54:24;;;;;;;14.85;8.20;;;;;;;;;;5013844;28;20041;-79
2022/02/22 02:57:03;;;;;;;11.07;6.30;;;;;;;;;;4974505;28;20047;-78
2022/02/22 02:59:29;;;;;;;12.50;8.27;;;;;;;;;;4992218;28;20070;-78
2022/02/22 03:01:56;;;;;;;11.43;7.35;;;;;;;;;;5012634;28;20046;-80
2022/02/22 03:04:22;;;;;;;12.05;7.10;;;;;;;;;;5004715;28;20038;-79
2022/02/22 03:06:54;;;;;;;11.88;7.15;;;;;;;;;;4990411;28;20019;-79
2022/02/22 03:12:52;;;;;;;11.75;6.90;;;;;;;;;;5008723;28;20049;-78
2022/02/22 03:15:39;;;;;;;13.35;8.27;;;;;;;;;;5014437;28;20031;-78
2022/02/22 03:18:14;;;;;;;11.65;7.03;;;;;;;;;;5013155;28;20037;-80
2022/02/22 03:20:53;;;;;;;14.13;9.18;;;;;;;;;;5014342;28;20089;-78
2022/02/22 03:23:22;;;;;;;13.90;8.07;;;;;;;;;;5012789;28;20049;-79
2022/02/22 03:25:50;;;;;;;12.00;8.30;;;;;;;;;;5009397;28;20129;-78
2022/02/22 03:28:48;;;;;;;11.98;8.07;;;;;;;;;;5013825;28;20038;-82
2022/02/22 03:31:30;;;;;;;10.30;6.55;;;;;;;;;;4930349;29;20020;-78
2022/02/22 03:34:00;;;;;;;10.15;6.90;;;;;;;;;;4936773;29;20401;-79
2022/02/22 03:36:31;;;;;;;10.45;6.65;;;;;;;;;;4920216;29;20039;-79
2022/02/22 03:38:57;;;;;;;13.45;7.63;;;;;;;;;;4935533;29;20028;-79
2022/02/22 03:41:24;;;;;;;12.23;7.28;;;;;;;;;;4943103;29;20087;-77
2022/02/22 03:43:50;;;;;;;8.70;6.60;;;;;;;;;;4937433;29;20031;-78
2022/02/22 03:46:16;;;;;;;11.25;7.20;;;;;;;;;;4954862;29;20027;-78
2022/02/22 03:48:48;;;;;;;11.95;6.80;;;;;;;;;;4954088;29;20047;-78
2022/02/22 03:51:40;;;;;;;12.55;6.85;;;;;;;;;;4953412;29;20019;-78
2022/02/22 03:54:15;;;;;;;10.82;6.72;;;;;;;;;;4932270;29;20051;-79
2022/02/22 03:57:14;;;;;;;9.38;6.32;;;;;;;;;;4945007;29;20110;-77
2022/02/22 03:59:43;;;;;;;11.95;7.05;;;;;;;;;;4937647;29;20020;-78
2022/02/22 04:02:09;;;;;;;8.75;6.72;;;;;;;;;;4952473;29;20036;-79
2022/02/22 04:04:35;;;;;;;11.35;7.72;;;;;;;;;;4939570;29;20020;-78
2022/02/22 04:07:33;;;;;;;11.55;7.40;;;;;;;;;;4958369;28;20028;-79
2022/02/22 04:10:15;;;;;;;10.93;7.47;;;;;;;;;;4994272;28;20061;-78
2022/02/22 04:12:56;;;;;;;12.40;7.38;;;;;;;;;;4951774;28;20103;-79
2022/02/22 04:15:31;;;;;;;;;;;;;;;;;;4926640;28;20024;-81
2022/02/22 04:18:00;;;;;;;12.45;7.20;;;;;;;;;;4936136;29;19931;-80
2022/02/22 04:20:26;;;;;;;11.30;7.10;;;;;;;;;;4937962;29;20045;-77
2022/02/22 04:23:15;;;;;;;10.55;6.43;;;;;;;;;;4953105;28;20040;-78
2022/02/22 04:25:49;;;;;;;11.43;6.38;;;;;;;;;;4930113;29;20111;-78
2022/02/22 04:28:17;;;;;;;10.27;6.82;;;;;;;;;;4950993;29;20016;-78
2022/02/22 04:30:46;;;;;;;9.48;6.28;;;;;;;;;;4947919;29;20051;-78
2022/02/22 04:33:42;;;;;;;9.20;6.75;;;;;;;;;;4930177;29;20051;-78
2022/02/22 04:36:09;;;;;;;10.27;7.25;;;;;;;;;;4948803;29;20051;-79
2022/02/22 04:38:35;;;;;;;10.85;6.40;;;;;;;;;;4915569;29;20048;-78
2022/02/22 04:41:01;;;;;;;9.77;6.80;;;;;;;;;;4938023;29;20020;-79
2022/02/22 04:43:29;;;;;;;10.07;6.13;;;;;;;;;;4986088;23;20055;-78
2022/02/22 04:45:55;;;;;;;12.30;6.72;;;;;;;;;;5034952;28;20045;-79
2022/02/22 04:48:22;;;;;;;9.57;6.25;;;;;;;;;;5030541;28;20014;-79
2022/02/22 04:50:48;;;;;;;11.55;6.40;;;;;;;;;;5027631;28;20048;-77
2022/02/22 04:53:14;;;;;;;11.60;6.50;;;;;;;;;;5029214;28;20025;-79
2022/02/22 04:55:41;;;;;;;9.80;6.70;;;;;;;;;;5039317;28;20025;-78
2022/02/22 04:58:10;;;;;;;9.88;6.30;;;;;;;;;;5021946;28;20013;-78
2022/02/22 05:00:40;;;;;;;;;;;;;;;;;;5040667;28;20034;-78
2022/02/22 05:03:07;;;;;;;8.88;6.50;;;;;;;;;;5032327;28;19960;-78
2022/02/22 05:05:37;;;;;;;24.52;17.17;;;;;;;;;;5050939;28;20048;-78
2022/02/22 05:08:08;;;;;;;29.15;22.13;;;;;;;;;;5048096;28;20028;-78
2022/02/22 05:10:53;;;;;;;16.92;12.63;;;;;;;;;;5040052;28;20033;-78
2022/02/22 05:13:24;;;;;;;13.55;8.25;;;;;;;;;;5040558;28;20056;-79
2022/02/22 05:16:16;;;;;;;10.75;6.95;;;;;;;;;;4965427;28;20036;-79
2022/02/22 05:18:42;;;;;;;10.93;6.78;;;;;;;;;;4956232;29;20050;-79
2022/02/22 05:21:08;;;;;;;10.60;6.80;;;;;;;;;;4961528;29;20054;-79
2022/02/22 05:23:35;;;;;;;10.07;6.68;;;;;;;;;;4977057;28;20448;-78
2022/02/22 05:26:03;;;;;;;9.80;6.30;;;;;;;;;;4970969;29;20139;-78
2022/02/22 05:28:29;;;;;;;9.93;5.97;;;;;;;;;;4974938;28;20042;-78
2022/02/22 05:30:56;;;;;;;9.88;6.97;;;;;;;;;;4955781;29;20098;-78
2022/02/22 05:33:31;;;;;;;12.52;8.18;;;;;;;;;;4960361;29;20039;-78
2022/02/22 05:35:58;;;;;;;11.35;6.95;;;;;;;;;;4951926;29;20015;-78
2022/02/22 05:38:25;;;;;;;10.48;6.85;;;;;;;;;;4935242;29;20016;-78
2022/02/22 05:40:53;;;;;;;12.35;7.88;;;;;;;;;;4951369;29;20015;-78
2022/02/22 05:43:19;;;;;;;12.77;6.78;;;;;;;;;;4955012;29;20047;-78
2022/02/22 05:45:45;;;;;;;13.15;8.57;;;;;;;;;;4963107;29;20691;-78
2022/02/22 05:48:11;;;;;;;15.02;7.78;;;;;;;;;;4958542;29;20035;-79
2022/02/22 05:50:38;;;;;;;7.07;5.47;;;;;;;;;;4963435;29;20122;-78
2022/02/22 05:53:11;;;;;;;12.73;7.00;;;;;;;;;;4980426;28;20050;-79
2022/02/22 05:55:38;;;;;;;8.38;5.63;;;;;;;;;;5024236;28;20046;-78
2022/02/22 05:58:12;;;;;;;7.40;5.18;;;;;;;;;;5014441;28;20035;-78
2022/02/22 06:00:39;;;;;;;;;;;;;;;;;;4986311;28;20109;-78
2022/02/22 06:03:13;;;;;;;9.30;5.63;;;;;;;;;;4991661;28;19914;-78
2022/02/22 06:05:39;;;;;;;8.27;5.68;;;;;;;;;;4992869;28;20029;-78
2022/02/22 06:08:07;;;;;;;17.00;7.95;;;;;;;;;;4988116;28;20067;-75
2022/02/22 06:10:33;;;;;;;8.85;6.30;;;;;;;;;;4969119;28;20030;-73
2022/02/22 06:12:59;;;;;;;12.90;6.93;;;;;;;;;;4987109;28;20428;-73
2022/02/22 06:15:27;;;;;;;12.13;6.43;;;;;;;;;;4966782;28;20019;-74
2022/02/22 06:17:54;;;;;;;12.52;8.10;;;;;;;;;;4980490;28;20044;-73
2022/02/22 06:20:23;;;;;;;11.35;7.13;;;;;;;;;;4973188;28;20097;-76
2022/02/22 06:22:53;;;;;;;20.90;11.98;;;;;;;;;;4986150;28;20378;-75
2022/02/22 06:25:21;;;;;;;9.68;7.03;;;;;;;;;;4969684;28;20045;-75
2022/02/22 06:27:51;;;;;;;11.52;7.13;;;;;;;;;;4976234;28;20031;-75
2022/02/22 06:30:17;;;;;;;11.60;7.53;;;;;;;;;;4991188;28;20038;-75
2022/02/22 06:32:44;;;;;;;10.57;7.57;;;;;;;;;;4985561;28;20119;-76
2022/02/22 06:35:10;;;;;;;16.52;8.10;;;;;;;;;;4974773;28;20034;-76
2022/02/22 06:37:37;;;;;;;15.55;10.25;;;;;;;;;;4987746;28;20027;-75
2022/02/22 06:40:05;;;;;;;14.15;10.43;;;;;;;;;;4988767;28;20094;-75
2022/02/22 06:42:31;;;;;;;19.30;13.07;;;;;;;;;;4982621;28;20049;-72
2022/02/22 06:44:57;;;;;;;14.98;10.70;;;;;;;;;;4984958;28;20138;-77
2022/02/22 06:47:23;;;;;;;14.38;9.68;;;;;;;;;;4986042;28;20027;-77
2022/02/22 06:49:49;;;;;;;13.43;10.50;;;;;;;;;;4984684;28;20035;-76
2022/02/22 06:52:16;;;;;;;10.40;8.32;;;;;;;;;;5010479;28;20033;-76
2022/02/22 06:54:54;;;;;;;13.35;8.85;;;;;;;;;;5013180;28;20064;-73
2022/02/22 06:57:26;;;;;;;11.20;8.25;;;;;;;;;;5009170;28;20027;-75
2022/02/22 06:59:52;;;;;;;12.15;7.30;;;;;;;;;;5021583;28;20042;-75
2022/02/22 07:02:18;;;;;;;13.20;8.15;;;;;;;;;;5009738;28;20034;-76
2022/02/22 07:04:55;;;;;;;14.05;8.02;;;;;;;;;;5014715;28;20069;-77
2022/02/22 07:07:24;;;;;;;14.23;9.18;;;;;;;;;;4965680;29;20015;-77
2022/02/22 07:09:57;;;;;;;15.60;10.55;;;;;;;;;;4946825;29;20153;-76
2022/02/22 07:12:25;;;;;;;14.85;8.18;;;;;;;;;;4938784;29;20056;-77
2022/02/22 07:14:56;;;;;;;12.98;7.90;;;;;;;;;;4959996;28;20035;-77
2022/02/22 07:17:28;;;;;;;13.30;8.02;;;;;;;;;;4945627;29;20067;-73
2022/02/22 07:20:08;;;;;;;11.63;8.27;;;;;;;;;;4949897;29;20031;-75
2022/02/22 07:22:42;;;;;;;12.93;8.68;;;;;;;;;;4963332;28;20052;-76
2022/02/22 07:25:12;;;;;;;15.70;10.20;;;;;;;;;;4949826;29;20035;-75
2022/02/22 07:27:39;;;;;;;14.70;7.80;;;;;;;;;;4951138;29;20150;-76
2022/02/22 07:30:06;;;;;;;15.25;7.50;;;;;;;;;;4963367;29;20047;-76
2022/02/22 07:32:32;;;;;;;16.42;8.38;;;;;;;;;;4951615;29;20032;-75
2022/02/22 07:34:58;;;;;;;16.98;7.82;;;;;;;;;;4939526;29;20028;-74
2022/02/22 07:37:24;;;;;;;16.10;11.93;;;;;;;;;;4961385;28;20057;-74
2022/02/22 07:39:50;;;;;;;28.35;20.63;;;;;;;;;;5004097;28;20034;-75
2022/02/22 07:42:17;;;;;;;13.10;8.45;;;;;;;;;;5001784;28;20030;-75
2022/02/22 07:44:43;;;;;;;11.25;7.07;;;;;;;;;;4962968;28;1211970;-76
2022/02/22 07:47:11;;;;;;;15.13;9.93;;;;;;;;;;5003207;28;20037;-77
2022/02/22 07:49:37;;;;;;;17.45;12.77;;;;;;;;;;5010633;28;20029;-76
2022/02/22 07:52:03;;;;;;;13.35;8.95;;;;;;;;;;5007573;28;20027;-77
2022/02/22 07:54:32;;;;;;;11.65;7.70;;;;;;;;;;5022408;28;20026;-78
2022/02/22 07:57:02;;;;;;;11.93;7.00;;;;;;;;;;5012527;28;20105;-79
2022/02/22 07:59:29;;;;;;;8.18;6.03;;;;;;;;;;5010437;28;20034;-77
2022/02/22 08:01:55;;;;;;;11.93;6.07;;;;;;;;;;5006474;28;20037;-76
2022/02/22 08:04:27;;;;;;;10.20;5.70;;;205.10;2252.80;;;;;;5007732;28;20546;-75
2022/02/22 08:06:55;;;;;;;10.40;5.50;;;205.00;2252.80;;;;;;5007624;28;20479;-75
2022/02/22 08:09:24;;;;;;;8.32;6.13;;;;;;;;;;5000990;28;20057;-77
2022/02/22 08:15:10;;;;;;;7.93;5.05;;;;;;;;;;5051850;23;20050;-77
2022/02/22 08:17:40;;;;;;;12.52;6.32;;;;;;;;;;5182477;23;20062;-76
2022/02/22 08:20:09;;;;;;;12.05;6.70;;;;;;;;;;4983874;28;20025;-77
2022/02/22 08:22:36;;;;;;;10.00;5.38;;;;;;;;;;4979648;28;20077;-75
2022/02/22 08:25:02;;;;;;;9.82;6.45;;;;;;;;;;4986643;28;20031;-75
2022/02/22 08:27:28;;;;;;;18.50;7.72;;;;;;;;;;4981230;28;20027;-75
2022/02/22 08:29:54;;;;;;;10.73;6.85;;;;;;;;;;4977560;28;20464;-75
2022/02/22 08:32:20;;;;;;;16.85;9.30;;;;;;;;;;4977051;28;20047;-73
2022/02/22 08:34:46;;;;;;;17.30;7.65;;;;;;;;;;4981995;28;20504;-75
2022/02/22 08:37:15;;;;;;;11.20;6.10;;;;;;;;;;4976074;28;20038;-75
2022/02/22 08:39:41;;;;;;;9.52;5.75;;;;;;;;;;4977446;28;20034;-74
2022/02/22 08:42:09;;;;;;;10.75;6.47;;;230.40;2252.80;;;;;;4974567;28;20203;-74
2022/02/22 08:44:36;;;;;;;10.15;6.63;;;;;;;;;;4978233;28;20039;-74
2022/02/22 08:47:02;;;;;;;9.32;6.05;;;;;;;;;;4990010;28;20031;-77
2022/02/22 08:49:28;;;;;;;10.50;5.90;;;;;;;;;;4985678;28;20031;-76
2022/02/22 08:51:54;;;;;;;18.92;12.70;;;;;;;;;;4981854;28;20135;-78
2022/02/22 08:54:20;;;;;;;11.82;6.00;;;;;;;;;;4982948;28;20022;-75
2022/02/22 08:56:49;;;;;;;10.98;6.30;;;;;;;;;;4988641;28;20540;-75
2022/02/22 08:59:15;;;;;;;13.13;6.18;;;256.00;2252.80;;;;;;4982081;28;20042;-77
2022/02/22 09:01:51;;;;;;;7.75;5.05;;;231.30;2252.80;;;;;;4979663;28;20026;-78
2022/02/22 09:04:18;;;;;;;11.25;5.85;;;231.20;2252.80;;;;;;4923529;28;20104;-76
2022/02/22 09:06:53;;;;;;;20.90;8.82;;;231.10;2252.80;;;;;;4985767;28;20035;-77
2022/02/22 09:09:58;;;;;;;9.02;5.45;;;230.90;2252.80;;;;;;4994937;28;20100;-79
2022/02/22 09:12:41;;;;;;;10.48;4.90;;;230.60;2252.80;;;;;;4974838;28;20061;-77
2022/02/22 09:15:17;;;;;;;10.10;6.43;;;230.60;2252.80;;;;;;4978273;28;20038;-78
2022/02/22 09:17:45;;;;;;;13.23;9.63;;;230.60;2252.80;;;;;;4979863;28;20058;-75
2022/02/22 09:20:17;;;;;;;10.80;7.15;;;230.50;2252.80;;;;;;4971094;28;20531;-75
2022/02/22 09:22:44;;;;;;;11.85;6.15;;;230.60;2252.80;;;;;;4982304;28;20043;-78
2022/02/22 09:25:13;;;;;;;11.52;5.57;;;230.50;2252.80;;;;;;4985319;28;20038;-75
2022/02/22 09:27:42;;;;;;;10.25;5.13;;;230.50;2252.80;;;;;;4975754;28;20026;-76
2022/02/22 09:30:13;;;;;;;7.30;4.88;;;230.50;2252.80;;;;;;4986389;28;20059;-76
2022/02/22 09:33:11;;;;;;;9.85;4.72;;;230.40;2252.80;;;;;;4992442;28;20027;-80
2022/02/22 09:35:47;;;;;;;9.68;4.80;;;205.70;2252.80;;;;;;4973138;28;20101;-75
2022/02/22 09:38:59;;;;;;;7.25;4.82;;;205.70;2252.80;;;;;;4971518;28;20083;-79
2022/02/22 09:41:35;;;;;;;11.10;5.30;;;205.70;2252.80;;;;;;4982830;28;20007;-77
2022/02/22 09:44:02;;;;;;;9.90;4.27;;;230.50;2252.80;;;;;;4959953;29;20047;-76
2022/02/22 09:46:53;;;;;;;9.02;5.38;;;230.50;2252.80;;;;;;4952935;28;20312;-76
2022/02/22 09:49:40;;;;;;;7.05;4.45;;;230.50;2252.80;;;;;;4996107;28;20039;-78
2022/02/22 09:52:06;;;;;;;9.18;4.25;;;205.70;2252.80;;;;;;4941770;29;20035;-79
2022/02/22 09:54:33;;;;;;;8.93;4.18;;;230.40;2252.80;;;;;;4963760;29;20042;-76
2022/02/22 09:56:59;;;;;;;7.65;4.43;;;230.50;2252.80;;;;;;4965036;28;20097;-76
2022/02/22 09:59:25;;;;;;;10.55;4.03;;;230.60;2252.80;;;;;;4957752;28;20501;-75
2022/02/22 10:01:54;;;;;;;5.75;3.65;;;230.70;2252.80;;;;;;4978545;28;20121;-75
2022/02/22 10:04:33;;;;;;;8.68;4.40;;;230.70;2252.80;;;;;;4961637;28;20039;-75
2022/02/22 10:07:09;;;;;;;10.93;4.80;;;230.90;2252.80;;;;;;4975528;28;20023;-76
2022/02/22 10:09:55;;;;;;;6.07;3.65;;;231.10;2252.80;;;;;;4976109;28;20034;-72
2022/02/22 10:12:54;;;;;;;8.02;4.05;;;231.00;2252.80;;;;;;4987163;28;20045;-76
2022/02/22 10:15:21;;;;;;;8.38;4.32;;;231.20;2252.80;;;;;;4907813;29;20040;-77
2022/02/22 10:17:51;;;;;;;8.57;4.22;;;230.50;2252.80;;;;;;4880319;29;20085;-78
2022/02/22 10:20:26;;;;;;;11.07;4.15;;;231.10;2252.80;;;;;;4889158;29;20048;-76
2022/02/22 10:22:57;;;;;;;7.22;4.70;;;230.90;2252.80;;;;;;4885067;29;20078;-77
2022/02/22 10:25:38;;;;;;;8.60;5.07;;;230.60;2252.80;;;;;;4890115;29;20060;-77
2022/02/22 10:28:15;;;;;;;9.10;3.80;;;230.60;2252.80;;;;;;4866616;29;20104;-74
2022/02/22 10:30:48;;;;;;;5.85;3.88;;;230.60;2252.80;;;;;;4876444;29;20065;-79
2022/02/22 10:33:33;;;;;;;4.97;3.53;;;230.70;2252.80;;;;;;4897500;29;20037;-76
2022/02/22 10:36:06;;;;;;;11.68;6.18;;;230.80;2252.80;;;;;;4836737;29;20140;-78
2022/02/22 10:38:37;;;;;;;10.15;5.05;;;230.70;2252.80;;;;;;4840613;29;20042;-78
2022/02/22 10:41:15;;;;;;;11.13;6.22;;;230.60;2252.80;;;;;;4856259;29;20104;-76
2022/02/22 10:43:57;;;;;;;15.75;6.45;;;230.60;2252.80;;;;;;4852894;29;20045;-74
2022/02/22 10:46:26;;;;;;;9.15;6.05;;;230.50;2252.80;;;;;;4853076;29;20125;-77
2022/02/22 10:49:13;;;;;;;9.23;3.90;;;230.60;2252.80;;;;;;4859963;29;20041;-77
2022/02/22 10:52:06;;;;;;;11.82;3.85;;;230.70;2252.80;;;;;;4903230;29;20099;-75
2022/02/22 10:54:32;;;;;;;7.18;3.25;;;230.70;2252.80;;;;;;4949613;29;20051;-78
2022/02/22 10:56:59;;;;;;;7.60;3.30;;;230.80;2252.80;;;;;;4950179;29;20542;-74
2022/02/22 10:59:41;;;;;;;8.20;4.53;;;231.00;2252.80;;;;;;4953848;29;20053;-78
2022/02/22 11:02:27;;;;;;;6.28;3.83;;;230.90;2252.80;;;;;;4920000;29;20063;-75
2022/02/22 11:07:51;;;;;;;11.70;3.38;;;256.20;2252.80;;;;;;5443453;23;20062;-78
2022/02/22 11:10:29;;;;;;;6.78;3.35;;;231.00;2252.80;;;;;;4967716;28;20027;-80
2022/02/22 11:13:01;;;;;;;9.88;4.32;;;231.00;2252.80;;;;;;4970893;28;20070;-75
2022/02/22 11:15:40;;;;;;;14.20;7.97;;;230.60;2252.80;;;;;;4963564;28;20031;-75
2022/02/22 11:18:17;;;;;;;10.60;6.40;;;231.30;2252.80;;;;;;4988421;28;20034;-76
2022/02/22 11:20:44;;;;;;;10.57;4.10;;;256.10;2252.80;;;;;;4984333;28;20019;-76
2022/02/22 11:23:15;;;;;;;15.95;6.97;;;256.00;2252.80;;;;;;4965000;28;20039;-77
2022/02/22 11:25:42;;;;;;;10.00;3.63;;;;;;;;;;4980036;28;20026;-76
2022/02/22 11:28:10;;;;;;;7.00;3.50;;;;;;;;;;4974727;28;20034;-74
2022/02/22 11:30:37;;;;;;;9.32;3.45;;;;;;;;;;4962338;28;20033;-76
2022/02/22 11:33:08;;;;;;;31.00;15.45;;;;;;;;;;4954952;28;20087;-74
2022/02/22 11:35:44;;;;;;;29.67;12.02;;;;;;;;;;4954726;28;20043;-73
2022/02/22 11:38:12;;;;;;;26.10;12.95;;;;;;;;;;4968797;28;20478;-71
2022/02/22 11:40:38;;;;;;;12.50;7.40;;;;;;;;;;4942751;29;20085;-73
2022/02/22 11:43:08;;;;;;;12.23;7.70;;;;;;;;;;4943712;29;20042;-72
2022/02/22 11:45:35;;;;;;;7.38;3.85;;;;;;;;;;4951452;29;20082;-71
2022/02/22 11:48:23;;;;;;;5.75;3.40;;;;;;;;;;4940842;29;20024;-75
2022/02/22 11:50:51;;;;;;;12.70;4.45;;;;;;;;;;4966032;28;20047;-76
2022/02/22 11:53:22;;;;;;;9.27;3.30;;;;;;;;;;4964700;28;20377;-77
2022/02/22 11:55:49;;;;;;;4.72;2.80;;;;;;;;;;4939435;29;20038;-77
2022/02/22 11:58:22;;;;;;;8.68;3.47;;;;;;;;;;4956821;29;20021;-77
2022/02/22 12:00:50;;;;;;;8.50;5.05;;;;;;;;;;4955275;29;20113;-74
2022/02/22 12:03:18;;;;;;;6.20;3.70;;;;;;;;;;4941835;29;20039;-74
2022/02/22 12:05:54;;;;;;;6.47;3.40;;;;;;;;;;4960473;29;20046;-75
2022/02/22 12:08:25;;;;;;;7.85;3.00;;;;;;;;;;4951809;28;20051;-76
2022/02/22 12:10:55;;;;;;;8.75;3.10;;;;;;;;;;4964851;28;20019;-75
2022/02/22 12:13:24;;;;;;;11.18;3.63;;;;;;;;;;4958531;29;20035;-76
2022/02/22 12:15:51;;;;;;;4.35;2.97;;;;;;;;;;4964649;29;20028;-75
2022/02/22 12:18:53;;;;;;;7.15;4.25;;;;;;;;;;4960380;28;20019;-78
2022/02/22 12:21:39;;;;;;;9.50;3.50;;;;;;;;;;4925071;29;20017;-79
2022/02/22 12:24:12;;;;;;;7.47;3.08;;;;;;;;;;4915143;29;20074;-75
2022/02/22 12:26:39;;;;;;;6.40;3.50;;;;;;;;;;4918566;29;20024;-77
2022/02/22 12:29:08;;;;;;;6.18;2.80;;;;;;;;;;4911063;29;20060;-78
2022/02/22 12:32:09;;;;;;;10.48;3.58;;;;;;;;;;4927878;29;20129;-76
2022/02/22 12:34:37;;;;;;;6.20;3.72;;;;;;;;;;4930453;29;20024;-77
2022/02/22 12:37:07;;;;;;;7.53;4.15;;;;;;;;;;4917063;29;20047;-76
2022/02/22 12:39:34;;;;;;;7.97;3.17;;;;;;;;;;4920514;29;20055;-77
2022/02/22 12:42:02;;;;;;;6.95;3.15;;;;;;;;;;4921146;29;20060;-76
2022/02/22 12:44:39;;;;;;;8.07;3.42;;;;;;;;;;4924874;29;20096;-81
2022/02/22 12:47:07;;;;;;;11.32;6.60;;;;;;;;;;4955392;29;20054;-76
2022/02/22 12:49:34;;;;;;;6.43;3.60;;;;;;;;;;4965555;28;20022;-76
2022/02/22 12:52:06;;;;;;;8.20;3.55;;;;;;;;;;4949960;28;20457;-71
2022/02/22 12:54:33;;;;;;;5.32;3.03;;;;;;;;;;4951460;29;20020;-72
2022/02/22 12:59:41;;;;;;;7.72;3.05;;;;;;;;;;5020074;23;20043;-78
2022/02/22 13:02:13;;;;;;;8.93;3.88;;;;;;;;;;4980937;28;20050;-79
2022/02/22 13:04:40;;;;;;;12.60;3.60;;;;;;;;;;4958187;28;20055;-78
2022/02/22 13:07:12;;;;;;;8.63;3.60;;;;;;;;;;4981323;28;20074;-72
2022/02/22 13:09:44;;;;;;;8.25;4.03;;;;;;;;;;4965902;28;20014;-79
2022/02/22 13:12:10;;;;;;;13.23;4.40;;;;;;;;;;4977633;28;20497;-77
2022/02/22 13:14:40;;;;;;;9.02;2.85;;;;;;;;;;4969652;28;20027;-74
2022/02/22 13:17:12;;;;;;;19.33;9.07;;;;;;;;;;4974792;28;20047;-70
2022/02/22 13:19:40;;;;;;;8.77;4.78;;;;;;;;;;4978661;28;20039;-75
2022/02/22 13:22:26;;;;;;;12.55;4.43;;;;;;;;;;4957522;28;20366;-71
2022/02/22 13:25:15;;;;;;;175.43;69.78;;;;;;;;;;4958671;28;20038;-70
2022/02/22 13:27:50;;;;;;;18.73;8.20;;;;;;;;;;4892860;29;20106;-70
2022/02/22 13:30:29;;;;;;;9.05;4.20;;;;;;;;;;4891619;29;20051;-70
2022/02/22 13:33:02;;;;;;;7.40;3.90;;;;;;;;;;4893306;29;20115;-70
2022/02/22 13:35:34;;;;;;;7.78;3.50;;;;;;;;;;4889491;29;20056;-71
2022/02/22 13:38:09;;;;;;;5.57;2.72;;;;;;;;;;4878181;29;20764;-70
2022/02/22 13:40:35;;;;;;;12.15;7.38;;;;;;;;;;4877910;29;20041;-70
2022/02/22 13:43:02;;;;;;;7.97;3.92;;;;;;;;;;4877160;29;20057;-70
2022/02/22 13:46:08;;;;;;;;;;;;;;;;;;;;;
2022/02/22 13:48:48;;;;;;;5.15;2.80;;;;;;;;;;4835452;29;20042;-70
2022/02/22 13:51:17;;;;;;;7.47;3.47;;;;;;;;;;4840959;29;20042;-70
2022/02/22 13:53:49;;;;;;;15.00;3.97;;;;;;;;;;4834732;29;20505;-70
2022/02/22 13:56:27;;;;;;;10.68;5.32;;;;;;;;;;4837066;29;20124;-72
2022/02/22 13:59:03;;;;;;;9.82;4.50;;;;;;;;;;4827149;29;20620;-70
2022/02/22 14:01:29;;;;;;;10.02;5.55;;;;;;;;;;4833802;29;21654;-70
2022/02/22 14:04:00;;;;;;;18.27;8.85;;;;;;;;;;4844992;29;20187;-72
2022/02/22 14:06:31;;;;;;;9.63;3.88;;;;;;;;;;4893008;29;20172;-70
2022/02/22 14:08:59;;;;;;;17.38;5.65;;;;;;;;;;4887622;29;20092;-76
2022/02/22 14:11:26;;;;;;;9.32;4.38;;;;;;;;;;4891393;29;20084;-75
2022/02/22 14:13:52;;;;;;;8.25;3.83;;;;;;;;;;4898918;29;20117;-73
2022/02/22 14:16:21;;;;;;;8.43;2.95;;;;;;;;;;4907939;29;20040;-73
2022/02/22 14:18:47;;;;;;;7.38;2.70;;;;;;;;;;4895118;29;20119;-73
2022/02/22 14:21:17;;;;;;;10.13;4.07;;;;;;;;;;4889680;29;20040;-73
2022/02/22 14:23:44;;;;;;;8.15;3.05;;;;;;;;;;4882600;29;20076;-74
2022/02/22 14:26:14;;;;;;;11.68;3.45;;;;;;;;;;4959573;29;20470;-73
2022/02/22 14:28:41;;;;;;;10.32;4.30;;;;;;;;;;4965178;28;20082;-79
2022/02/22 14:31:07;;;;;;;8.23;3.00;;;;;;;;;;4934797;29;20023;-78
2022/02/22 14:33:56;;;;;;;11.43;3.15;;;;;;;;;;4969917;29;20027;-76
2022/02/22 14:36:26;;;;;;;9.25;3.08;;;;;;;;;;4958263;29;20020;-75
2022/02/22 14:38:52;;;;;;;14.43;6.68;;;;;;;;;;4956923;29;20019;-74
2022/02/22 14:41:18;;;;;;;12.27;4.93;;;;;;;;;;4961557;29;20035;-76
2022/02/22 14:43:50;;;;;;;15.95;5.47;;;;;;;;;;4939189;29;20038;-75
2022/02/22 14:46:17;;;;;;;9.57;4.18;;;;;;;;;;4949850;29;20031;-75
2022/02/22 14:48:43;;;;;;;17.45;7.35;;;;;;;;;;4939933;29;20031;-75
2022/02/22 14:51:14;;;;;;;9.30;4.35;;;;;;;;;;4937284;29;20087;-74
2022/02/22 14:53:43;;;;;;;6.03;2.65;;;;;;;;;;4960541;29;20027;-75